Time,TemperatureF,DewpointF,PressureIn,WindDirection,WindDirectionDegrees,WindSpeedMPH,WindSpeedGustMPH,Humidity,HourlyPrecipIn,Conditions,Clouds,dailyrainin,SoftwareType,DateUTC
2013-07-23 00:03:00,72.7,35.5,29.85,SSW,203,1.8,4.5,26,0.00,,,0.00,WUHU216HW,2013-07-23 06:03:00,
2013-07-23 00:13:00,72.2,35.0,29.85,South,180,3.4,5.1,26,0.00,,,0.00,WUHU216HW,2013-07-23 06:13:00,
2013-07-23 00:23:00,72.0,36.9,29.85,NNW,338,0.9,2.9,28,0.00,,,0.00,WUHU216HW,2013-07-23 06:23:00,
2013-07-23 00:33:00,71.3,37.4,29.86,West,270,0.0,2.7,29,0.00,,,0.00,WUHU216HW,2013-07-23 06:33:00,
2013-07-23 00:43:00,70.7,36.9,29.86,SSE,158,1.8,2.7,29,0.00,,,0.00,WUHU216HW,2013-07-23 06:43:00,
2013-07-23 00:53:00,70.2,36.4,29.86,ESE,113,2.5,4.0,29,0.00,,,0.00,WUHU216HW,2013-07-23 06:53:00,
2013-07-23 01:03:00,69.7,36.9,29.86,SE,135,2.7,3.4,30,0.00,,,0.00,WUHU216HW,2013-07-23 07:03:00,
2013-07-23 01:13:00,69.1,36.5,29.87,South,180,2.5,3.1,30,0.00,,,0.00,WUHU216HW,2013-07-23 07:13:00,
2013-07-23 01:23:00,68.4,35.8,29.87,SSE,158,6.7,6.7,30,0.00,,,0.00,WUHU216HW,2013-07-23 07:23:00,
2013-07-23 01:33:00,67.5,36.5,29.87,SSE,158,6.3,6.9,32,0.00,,,0.00,WUHU216HW,2013-07-23 07:33:00,
2013-07-23 01:43:00,66.6,35.7,29.87,SSE,158,6.0,7.6,32,0.00,,,0.00,WUHU216HW,2013-07-23 07:43:00,
2013-07-23 01:53:00,66.1,36.0,29.88,SSE,158,6.9,7.6,33,0.00,,,0.00,WUHU216HW,2013-07-23 07:53:00,
2013-07-23 02:03:00,65.9,35.8,29.88,South,180,4.5,6.3,33,0.00,,,0.00,WUHU216HW,2013-07-23 08:03:00,
2013-07-23 02:13:00,65.5,35.6,29.88,SSW,203,6.0,8.7,33,0.00,,,0.00,WUHU216HW,2013-07-23 08:13:00,
2013-07-23 02:23:00,65.2,35.2,29.88,South,180,5.8,7.8,33,0.00,,,0.00,WUHU216HW,2013-07-23 08:23:00,
2013-07-23 02:33:00,64.8,34.9,29.88,SW,225,5.1,8.1,33,0.00,,,0.00,WUHU216HW,2013-07-23 08:33:00,
2013-07-23 02:43:00,64.4,35.3,29.89,SSE,158,8.3,8.3,34,0.00,,,0.00,WUHU216HW,2013-07-23 08:43:00,
2013-07-23 02:53:00,64.3,35.1,29.89,SSW,203,5.4,5.4,34,0.00,,,0.00,WUHU216HW,2013-07-23 08:53:00,
2013-07-23 03:03:00,63.7,35.4,29.89,SSE,158,4.9,8.5,35,0.00,,,0.00,WUHU216HW,2013-07-23 09:03:00,
2013-07-23 03:13:00,63.4,35.0,29.89,SE,135,3.4,5.8,35,0.00,,,0.00,WUHU216HW,2013-07-23 09:13:00,
2013-07-23 03:23:00,62.8,35.3,29.89,South,180,2.5,5.1,36,0.00,,,0.00,WUHU216HW,2013-07-23 09:23:00,
2013-07-23 03:33:00,62.5,35.6,29.90,South,180,3.6,3.6,37,0.00,,,0.00,WUHU216HW,2013-07-23 09:33:00,
2013-07-23 03:43:00,62.3,35.5,29.90,SSE,158,1.1,4.7,37,0.00,,,0.00,WUHU216HW,2013-07-23 09:43:00,
2013-07-23 03:54:00,61.9,35.2,29.90,SSW,203,5.4,5.4,37,0.00,,,0.00,WUHU216HW,2013-07-23 09:54:00,
2013-07-23 04:04:00,61.7,35.7,29.90,South,180,2.2,7.6,38,0.00,,,0.00,WUHU216HW,2013-07-23 10:04:00,
2013-07-23 04:14:00,61.4,36.1,29.90,SE,135,2.9,6.3,39,0.00,,,0.00,WUHU216HW,2013-07-23 10:14:00,
2013-07-23 04:24:00,61.0,35.8,29.91,SSW,203,3.4,5.4,39,0.00,,,0.00,WUHU216HW,2013-07-23 10:24:00,
2013-07-23 04:34:00,60.8,35.6,29.91,SSE,158,1.8,4.5,39,0.00,,,0.00,WUHU216HW,2013-07-23 10:34:00,
2013-07-23 04:44:00,60.3,35.2,29.91,SSE,158,4.0,4.7,39,0.00,,,0.00,WUHU216HW,2013-07-23 10:44:00,
2013-07-23 04:54:00,59.8,35.4,29.91,SSW,203,6.0,6.0,40,0.00,,,0.00,WUHU216HW,2013-07-23 10:54:00,
2013-07-23 05:04:00,59.4,35.6,29.92,SSE,158,1.3,5.4,41,0.00,,,0.00,WUHU216HW,2013-07-23 11:04:00,
2013-07-23 05:14:00,59.0,35.9,29.92,SSE,158,3.6,4.0,42,0.00,,,0.00,WUHU216HW,2013-07-23 11:14:00,
2013-07-23 05:24:00,58.7,36.2,29.92,SSW,203,2.7,6.3,43,0.00,,,0.00,WUHU216HW,2013-07-23 11:24:00,
2013-07-23 05:34:00,58.3,35.3,29.93,SSE,158,1.3,3.1,42,0.00,,,0.00,WUHU216HW,2013-07-23 11:34:00,
2013-07-23 05:44:00,58.0,35.5,29.93,SSW,203,4.9,5.4,43,0.00,,,0.00,WUHU216HW,2013-07-23 11:44:00,
2013-07-23 05:54:00,58.0,35.5,29.93,South,180,1.1,5.4,43,0.00,,,0.00,WUHU216HW,2013-07-23 11:54:00,
2013-07-23 06:04:00,57.6,35.7,29.93,SSE,158,2.0,5.6,44,0.00,,,0.00,WUHU216HW,2013-07-23 12:04:00,
2013-07-23 06:14:00,57.1,35.8,29.93,SSE,158,2.5,3.8,45,0.00,,,0.00,WUHU216HW,2013-07-23 12:14:00,
2013-07-23 06:24:00,56.7,36.1,29.94,SE,135,2.0,3.6,46,0.00,,,0.00,WUHU216HW,2013-07-23 12:24:00,
2013-07-23 06:34:00,56.5,35.9,29.94,SSE,158,4.3,4.3,46,0.00,,,0.00,WUHU216HW,2013-07-23 12:34:00,
2013-07-23 06:44:00,56.3,36.3,29.94,SE,135,2.5,6.0,47,0.00,,,0.00,WUHU216HW,2013-07-23 12:44:00,
2013-07-23 06:54:00,57.2,37.2,29.95,South,180,1.6,4.7,47,0.00,,,0.00,WUHU216HW,2013-07-23 12:54:00,
2013-07-23 07:04:00,58.3,37.5,29.95,SE,135,2.0,3.1,46,0.00,,,0.00,WUHU216HW,2013-07-23 13:04:00,
2013-07-23 07:14:00,59.8,38.3,29.95,SE,135,3.6,3.6,45,0.00,,,0.00,WUHU216HW,2013-07-23 13:14:00,
2013-07-23 07:24:00,60.5,38.3,29.95,ESE,113,1.1,4.3,44,0.00,,,0.00,WUHU216HW,2013-07-23 13:24:00,
2013-07-23 07:34:00,61.4,39.2,29.96,East,90,2.9,2.9,44,0.00,,,0.00,WUHU216HW,2013-07-23 13:34:00,
2013-07-23 07:44:00,62.5,39.5,29.96,NE,45,0.4,3.6,43,0.00,,,0.00,WUHU216HW,2013-07-23 13:44:00,
2013-07-23 07:54:00,63.2,40.2,29.96,East,90,1.8,1.8,43,0.00,,,0.00,WUHU216HW,2013-07-23 13:54:00,
2013-07-23 08:04:00,64.3,40.6,29.97,South,180,0.4,1.6,42,0.00,,,0.00,WUHU216HW,2013-07-23 14:04:00,
2013-07-23 08:14:00,65.2,40.9,29.97,SSE,158,1.1,3.4,41,0.00,,,0.00,WUHU216HW,2013-07-23 14:14:00,
2013-07-23 08:24:00,66.2,41.2,29.97,SW,225,0.4,2.9,40,0.00,,,0.00,WUHU216HW,2013-07-23 14:24:00,
2013-07-23 08:34:00,67.1,41.3,29.97,SSW,203,0.2,1.8,39,0.00,,,0.00,WUHU216HW,2013-07-23 14:34:00,
2013-07-23 08:44:00,67.9,41.9,29.97,NW,315,0.9,1.8,39,0.00,,,0.00,WUHU216HW,2013-07-23 14:44:00,
2013-07-23 08:54:00,68.0,41.4,29.97,NNE,23,0.4,2.0,38,0.00,,,0.00,WUHU216HW,2013-07-23 14:54:00,
2013-07-23 09:04:00,68.8,42.0,29.97,NNE,23,2.2,2.2,38,0.00,,,0.00,WUHU216HW,2013-07-23 15:04:00,
2013-07-23 09:14:00,69.1,41.6,29.97,North,0,1.6,1.8,37,0.00,,,0.00,WUHU216HW,2013-07-23 15:14:00,
2013-07-23 09:24:00,70.0,42.4,29.97,WSW,248,0.7,1.8,37,0.00,,,0.00,WUHU216HW,2013-07-23 15:24:00,
2013-07-23 09:34:00,70.7,43.8,29.97,ENE,68,2.5,2.5,38,0.00,,,0.00,WUHU216HW,2013-07-23 15:34:00,
2013-07-23 09:45:00,71.8,42.6,29.97,NE,45,0.2,2.0,35,0.00,,,0.00,WUHU216HW,2013-07-23 15:45:00,
2013-07-23 09:55:00,72.4,42.3,29.97,NW,315,0.9,2.7,34,0.00,,,0.00,WUHU216HW,2013-07-23 15:55:00,
2013-07-23 10:05:00,72.7,42.6,29.97,East,90,0.4,1.3,34,0.00,,,0.00,WUHU216HW,2013-07-23 16:05:00,
2013-07-23 10:15:00,74.2,42.3,29.96,West,270,0.2,3.4,32,0.00,,,0.00,WUHU216HW,2013-07-23 16:15:00,
2013-07-23 10:25:00,75.2,41.8,29.96,West,270,2.2,6.9,30,0.00,,,0.00,WUHU216HW,2013-07-23 16:25:00,
2013-07-23 10:35:00,76.5,42.9,29.96,SE,135,0.4,3.4,30,0.00,,,0.00,WUHU216HW,2013-07-23 16:35:00,
2013-07-23 10:45:00,77.6,41.8,29.96,WNW,293,3.8,4.0,28,0.00,,,0.00,WUHU216HW,2013-07-23 16:45:00,
2013-07-23 10:55:00,78.1,42.1,29.96,South,180,2.0,4.5,28,0.00,,,0.00,WUHU216HW,2013-07-23 16:55:00,
2013-07-23 11:05:00,79.2,43.0,29.96,ESE,113,3.1,3.4,28,0.00,,,0.00,WUHU216HW,2013-07-23 17:05:00,
2013-07-23 11:15:00,80.5,44.2,29.96,NE,45,2.9,3.4,28,0.00,,,0.00,WUHU216HW,2013-07-23 17:15:00,
2013-07-23 11:25:00,80.5,42.1,29.96,North,0,3.1,5.4,26,0.00,,,0.00,WUHU216HW,2013-07-23 17:25:00,
2013-07-23 11:35:00,80.6,42.3,29.95,NNW,338,2.9,2.9,26,0.00,,,0.00,WUHU216HW,2013-07-23 17:35:00,
2013-07-23 11:45:00,81.4,42.8,29.95,NNE,23,1.1,2.2,26,0.00,,,0.00,WUHU216HW,2013-07-23 17:45:00,
2013-07-23 11:55:00,82.4,42.7,29.95,North,0,1.1,3.1,25,0.00,,,0.00,WUHU216HW,2013-07-23 17:55:00,
2013-07-23 12:05:00,83.0,43.1,29.94,East,90,1.3,3.1,25,0.00,,,0.00,WUHU216HW,2013-07-23 18:05:00,
2013-07-23 12:15:00,83.9,43.9,29.94,NW,315,1.1,3.1,25,0.00,,,0.00,WUHU216HW,2013-07-23 18:15:00,
2013-07-23 12:25:00,84.4,43.3,29.94,North,0,1.6,4.3,24,0.00,,,0.00,WUHU216HW,2013-07-23 18:25:00,
2013-07-23 12:35:00,85.0,42.7,29.94,NNE,23,0.9,2.5,23,0.00,,,0.00,WUHU216HW,2013-07-23 18:35:00,
2013-07-23 12:45:00,85.3,44.0,29.94,NE,45,3.4,4.5,24,0.00,,,0.00,WUHU216HW,2013-07-23 18:45:00,
2013-07-23 12:55:00,86.0,44.6,29.94,East,90,1.1,2.7,24,0.00,,,0.00,WUHU216HW,2013-07-23 18:55:00,
2013-07-23 13:05:00,86.9,44.4,29.93,ENE,68,2.7,3.8,23,0.00,,,0.00,WUHU216HW,2013-07-23 19:05:00,
2013-07-23 13:16:00,86.8,42.0,29.93,NNW,338,4.0,4.9,21,0.00,,,0.00,WUHU216HW,2013-07-23 19:16:00,
2013-07-23 13:26:00,86.8,42.0,29.92,North,0,3.4,6.9,21,0.00,,,0.00,WUHU216HW,2013-07-23 19:26:00,
2013-07-23 13:36:00,87.1,42.4,29.92,North,0,3.6,3.6,21,0.00,,,0.00,WUHU216HW,2013-07-23 19:36:00,
2013-07-23 13:46:00,87.5,43.7,29.92,East,90,4.3,5.8,22,0.00,,,0.00,WUHU216HW,2013-07-23 19:46:00,
2013-07-23 13:56:00,88.4,43.5,29.91,NE,45,3.4,4.5,21,0.00,,,0.00,WUHU216HW,2013-07-23 19:56:00,
2013-07-23 14:06:00,88.2,40.5,29.91,NNE,23,4.3,7.6,19,0.00,,,0.00,WUHU216HW,2013-07-23 20:06:00,
2013-07-23 14:17:00,88.6,39.1,29.91,NW,315,0.4,3.1,18,0.00,,,0.00,WUHU216HW,2013-07-23 20:17:00,
2013-07-23 14:27:00,88.7,39.2,29.90,NNE,23,4.0,6.7,18,0.00,,,0.00,WUHU216HW,2013-07-23 20:27:00,
2013-07-23 14:37:00,88.7,37.4,29.90,WNW,293,2.9,4.5,17,0.00,,,0.00,WUHU216HW,2013-07-23 20:37:00,
2013-07-23 14:47:00,88.7,39.2,29.90,NNE,23,4.7,5.4,18,0.00,,,0.00,WUHU216HW,2013-07-23 20:47:00,
2013-07-23 14:57:00,89.1,37.7,29.89,North,0,2.2,4.9,17,0.00,,,0.00,WUHU216HW,2013-07-23 20:57:00,
2013-07-23 15:07:00,89.3,37.9,29.89,NNE,23,5.8,5.8,17,0.00,,,0.00,WUHU216HW,2013-07-23 21:07:00,
2013-07-23 15:17:00,89.1,37.7,29.89,NNW,338,2.0,6.3,17,0.00,,,0.00,WUHU216HW,2013-07-23 21:17:00,
2013-07-23 15:27:00,89.3,37.9,29.89,North,0,3.8,6.3,17,0.00,,,0.00,WUHU216HW,2013-07-23 21:27:00,
2013-07-23 15:37:00,89.3,36.1,29.88,NNW,338,4.3,9.2,16,0.00,,,0.00,WUHU216HW,2013-07-23 21:37:00,
2013-07-23 15:47:00,89.6,38.2,29.88,North,0,6.3,6.3,17,0.00,,,0.00,WUHU216HW,2013-07-23 21:47:00,
2013-07-23 15:57:00,89.6,38.2,29.88,North,0,2.9,6.3,17,0.00,,,0.00,WUHU216HW,2013-07-23 21:57:00,
2013-07-23 16:07:00,89.8,38.3,29.87,NNW,338,5.4,6.9,17,0.00,,,0.00,WUHU216HW,2013-07-23 22:07:00,
2013-07-23 16:17:00,90.0,38.4,29.87,East,90,1.8,4.7,17,0.00,,,0.00,WUHU216HW,2013-07-23 22:17:00,
2013-07-23 16:27:00,90.4,37.0,29.87,North,0,2.5,5.6,16,0.00,,,0.00,WUHU216HW,2013-07-23 22:27:00,
2013-07-23 16:37:00,90.4,37.0,29.87,North,0,4.9,6.7,16,0.00,,,0.00,WUHU216HW,2013-07-23 22:37:00,
2013-07-23 16:47:00,90.7,37.3,29.86,North,0,6.3,6.3,16,0.00,,,0.00,WUHU216HW,2013-07-23 22:47:00,
2013-07-23 16:57:00,90.7,37.3,29.86,NNE,23,5.6,5.6,16,0.00,,,0.00,WUHU216HW,2013-07-23 22:57:00,
2013-07-23 17:07:00,90.9,37.5,29.86,WNW,293,4.7,4.7,16,0.00,,,0.00,WUHU216HW,2013-07-23 23:07:00,
2013-07-23 17:17:00,90.9,37.5,29.85,NNE,23,4.0,8.1,16,0.00,,,0.00,WUHU216HW,2013-07-23 23:17:00,
2013-07-23 17:27:00,90.7,35.6,29.85,ENE,68,3.4,7.8,15,0.00,,,0.00,WUHU216HW,2013-07-23 23:27:00,
2013-07-23 17:37:00,91.1,39.3,29.85,NE,45,2.0,4.7,17,0.00,,,0.00,WUHU216HW,2013-07-23 23:37:00,
2013-07-23 17:47:00,91.4,37.8,29.84,SSW,203,0.7,3.4,16,0.00,,,0.00,WUHU216HW,2013-07-23 23:47:00,
2013-07-23 17:58:00,91.6,39.7,29.84,East,90,2.5,4.0,17,0.00,,,0.00,WUHU216HW,2013-07-23 23:58:00,
2013-07-23 18:08:00,91.1,39.3,29.84,ENE,68,1.1,4.9,17,0.00,,,0.00,WUHU216HW,2013-07-24 00:08:00,
2013-07-23 18:18:00,91.4,39.6,29.84,NE,45,2.2,5.8,17,0.00,,,0.00,WUHU216HW,2013-07-24 00:18:00,
2013-07-23 18:28:00,91.4,37.8,29.84,ESE,113,2.2,3.8,16,0.00,,,0.00,WUHU216HW,2013-07-24 00:28:00,
2013-07-23 18:38:00,91.3,37.7,29.84,NE,45,1.8,3.4,16,0.00,,,0.00,WUHU216HW,2013-07-24 00:38:00,
2013-07-23 18:48:00,91.4,37.8,29.83,NW,315,1.8,1.8,16,0.00,,,0.00,WUHU216HW,2013-07-24 00:48:00,
2013-07-23 18:59:00,91.4,36.1,29.83,NW,315,1.8,2.7,15,0.00,,,0.00,WUHU216HW,2013-07-24 00:59:00,
2013-07-23 19:09:00,91.4,36.1,29.83,North,0,2.0,3.4,15,0.00,,,0.00,WUHU216HW,2013-07-24 01:09:00,
2013-07-23 19:19:00,91.1,35.8,29.83,North,0,0.0,2.5,15,0.00,,,0.00,WUHU216HW,2013-07-24 01:19:00,
2013-07-23 19:29:00,91.3,35.9,29.83,NNE,23,2.0,3.8,15,0.00,,,0.00,WUHU216HW,2013-07-24 01:29:00,
2013-07-23 19:39:00,91.1,35.8,29.83,NNW,338,1.8,2.7,15,0.00,,,0.00,WUHU216HW,2013-07-24 01:39:00,
2013-07-23 19:49:00,91.1,35.8,29.83,NW,315,0.0,1.1,15,0.00,,,0.00,WUHU216HW,2013-07-24 01:49:00,
2013-07-23 19:59:00,91.1,37.5,29.83,NNW,338,0.9,1.6,16,0.00,,,0.00,WUHU216HW,2013-07-24 01:59:00,
2013-07-23 20:09:00,90.5,37.1,29.83,WSW,248,0.0,0.9,16,0.00,,,0.00,WUHU216HW,2013-07-24 02:09:00,
2013-07-23 20:19:00,90.0,38.4,29.83,SSW,203,0.0,0.0,17,0.00,,,0.00,WUHU216HW,2013-07-24 02:19:00,
2013-07-23 20:29:00,89.6,38.2,29.83,WSW,248,0.0,0.0,17,0.00,,,0.00,WUHU216HW,2013-07-24 02:29:00,
2013-07-23 20:39:00,88.7,39.2,29.83,SW,225,1.3,1.8,18,0.00,,,0.00,WUHU216HW,2013-07-24 02:39:00,
2013-07-23 20:49:00,87.7,38.4,29.84,SSW,203,4.0,4.0,18,0.00,,,0.00,WUHU216HW,2013-07-24 02:49:00,
2013-07-23 20:59:00,86.2,38.8,29.84,South,180,2.9,3.4,19,0.00,,,0.00,WUHU216HW,2013-07-24 02:59:00,
2013-07-23 21:09:00,84.8,37.6,29.84,SSW,203,3.6,4.5,19,0.00,,,0.00,WUHU216HW,2013-07-24 03:09:00,
2013-07-23 21:20:00,83.9,36.9,29.84,SSW,203,4.5,4.7,19,0.00,,,0.00,WUHU216HW,2013-07-24 03:20:00,
2013-07-23 21:30:00,82.8,38.8,29.84,South,180,2.5,4.3,21,0.00,,,0.00,WUHU216HW,2013-07-24 03:30:00,
2013-07-23 21:40:00,82.1,38.2,29.84,South,180,4.3,4.3,21,0.00,,,0.00,WUHU216HW,2013-07-24 03:40:00,
2013-07-23 21:50:00,81.5,38.8,29.85,NE,45,1.8,4.3,22,0.00,,,0.00,WUHU216HW,2013-07-24 03:50:00,
2013-07-23 22:00:00,80.5,39.0,29.86,SE,135,1.1,1.3,23,0.00,,,0.00,WUHU216HW,2013-07-24 04:00:00,
2013-07-23 22:10:00,79.6,38.2,29.86,East,90,1.1,1.3,23,0.00,,,0.00,WUHU216HW,2013-07-24 04:10:00,
2013-07-23 22:20:00,78.8,38.5,29.86,East,90,0.9,1.1,24,0.00,,,0.00,WUHU216HW,2013-07-24 04:20:00,
2013-07-23 22:30:00,78.1,38.0,29.87,SSW,203,0.0,1.3,24,0.00,,,0.00,WUHU216HW,2013-07-24 04:30:00,
2013-07-23 22:40:00,77.4,38.4,29.86,South,180,0.7,0.9,25,0.00,,,0.00,WUHU216HW,2013-07-24 04:40:00,
2013-07-23 22:50:00,76.5,38.7,29.86,SSE,158,0.9,3.4,26,0.00,,,0.00,WUHU216HW,2013-07-24 04:50:00,
2013-07-23 23:00:00,75.8,38.2,29.87,South,180,1.1,2.5,26,0.00,,,0.00,WUHU216HW,2013-07-24 05:00:00,
2013-07-23 23:10:00,75.1,37.5,29.87,SE,135,2.0,2.0,26,0.00,,,0.00,WUHU216HW,2013-07-24 05:10:00,
2013-07-23 23:20:00,74.3,36.9,29.87,South,180,0.0,2.5,26,0.00,,,0.00,WUHU216HW,2013-07-24 05:20:00,
2013-07-23 23:30:00,73.6,36.3,29.87,SSE,158,0.0,1.1,26,0.00,,,0.00,WUHU216HW,2013-07-24 05:30:00,
2013-07-23 23:40:00,73.1,37.8,29.87,SSW,203,0.9,1.3,28,0.00,,,0.00,WUHU216HW,2013-07-24 05:40:00,
2013-07-23 23:50:00,72.5,37.4,29.87,ESE,113,0.0,1.1,28,0.00,,,0.00,WUHU216HW,2013-07-24 05:50:00,